sensor_id;sensor_type;location;lat;lon;timestamp;temperature;humidity
15690;DHT22;7945;48.816;11.506;2023-02-12T00:00:59;5.20;99.90
15690;DHT22;7945;48.816;11.506;2023-02-12T00:03:26;5.20;99.90
15690;DHT22;7945;48.816;11.506;2023-02-12T00:05:53;5.20;99.90
15690;DHT22;7945;48.816;11.506;2023-02-12T00:08:21;5.20;99.90
15690;DHT22;7945;48.816;11.506;2023-02-12T00:10:47;5.20;99.90
15690;DHT22;7945;48.816;11.506;2023-02-12T00:13:14;5.10;99.90
15690;DHT22;7945;48.816;11.506;2023-02-12T00:15:42;5.10;99.90
15690;DHT22;7945;48.816;11.506;2023-02-12T00:18:08;5.10;99.90
15690;DHT22;7945;48.816;11.506;2023-02-12T00:20:36;5.10;99.90
15690;DHT22;7945;48.816;11.506;2023-02-12T00:23:03;5.10;99.90
15690;DHT22;7945;48.816;11.506;2023-02-12T00:25:32;5.10;99.90
15690;DHT22;7945;48.816;11.506;2023-02-12T00:27:59;5.10;99.90
15690;DHT22;7945;48.816;11.506;2023-02-12T00:30:25;5.10;99.90
15690;DHT22;7945;48.816;11.506;2023-02-12T00:32:52;5.10;99.90
15690;DHT22;7945;48.816;11.506;2023-02-12T00:35:19;5.10;99.90
15690;DHT22;7945;48.816;11.506;2023-02-12T00:37:45;5.00;99.90
15690;DHT22;7945;48.816;11.506;2023-02-12T00:40:12;5.00;99.90
15690;DHT22;7945;48.816;11.506;2023-02-12T00:42:40;5.00;99.90
15690;DHT22;7945;48.816;11.506;2023-02-12T00:45:08;5.00;99.90
15690;DHT22;7945;48.816;11.506;2023-02-12T00:47:35;4.90;99.90
15690;DHT22;7945;48.816;11.506;2023-02-12T00:50:01;4.90;99.90
15690;DHT22;7945;48.816;11.506;2023-02-12T00:52:28;4.90;99.90
15690;DHT22;7945;48.816;11.506;2023-02-12T00:54:55;4.90;99.90
15690;DHT22;7945;48.816;11.506;2023-02-12T00:57:22;5.00;99.90
15690;DHT22;7945;48.816;11.506;2023-02-12T00:59:50;5.00;99.90
15690;DHT22;7945;48.816;11.506;2023-02-12T01:02:16;5.00;99.90
15690;DHT22;7945;48.816;11.506;2023-02-12T01:04:43;5.00;99.90
15690;DHT22;7945;48.816;11.506;2023-02-12T01:07:10;5.00;99.90
15690;DHT22;7945;48.816;11.506;2023-02-12T01:09:37;5.00;99.90
15690;DHT22;7945;48.816;11.506;2023-02-12T01:12:04;5.00;99.90
15690;DHT22;7945;48.816;11.506;2023-02-12T01:14:31;5.00;99.90
15690;DHT22;7945;48.816;11.506;2023-02-12T01:16:59;5.00;99.90
15690;DHT22;7945;48.816;11.506;2023-02-12T01:19:26;5.00;99.90
15690;DHT22;7945;48.816;11.506;2023-02-12T01:21:53;4.90;99.90
15690;DHT22;7945;48.816;11.506;2023-02-12T01:24:19;4.90;99.90
15690;DHT22;7945;48.816;11.506;2023-02-12T01:26:46;4.90;99.90
15690;DHT22;7945;48.816;11.506;2023-02-12T01:29:13;4.90;99.90
15690;DHT22;7945;48.816;11.506;2023-02-12T01:31:40;4.90;99.90
15690;DHT22;7945;48.816;11.506;2023-02-12T01:34:09;4.90;99.90
15690;DHT22;7945;48.816;11.506;2023-02-12T01:36:36;4.90;99.90
15690;DHT22;7945;48.816;11.506;2023-02-12T01:39:04;4.90;99.90
15690;DHT22;7945;48.816;11.506;2023-02-12T01:41:33;4.90;99.90
15690;DHT22;7945;48.816;11.506;2023-02-12T01:44:09;4.90;99.90
15690;DHT22;7945;48.816;11.506;2023-02-12T01:46:36;4.90;99.90
15690;DHT22;7945;48.816;11.506;2023-02-12T01:49:05;5.00;99.90
15690;DHT22;7945;48.816;11.506;2023-02-12T01:51:34;5.00;99.90
15690;DHT22;7945;48.816;11.506;2023-02-12T01:54:04;5.00;99.90
15690;DHT22;7945;48.816;11.506;2023-02-12T01:56:32;5.00;99.90
15690;DHT22;7945;48.816;11.506;2023-02-12T01:58:59;5.00;99.90
15690;DHT22;7945;48.816;11.506;2023-02-12T02:01:28;5.00;99.90
15690;DHT22;7945;48.816;11.506;2023-02-12T02:03:57;5.00;99.90
15690;DHT22;7945;48.816;11.506;2023-02-12T02:06:29;4.90;99.90
15690;DHT22;7945;48.816;11.506;2023-02-12T02:08:58;4.90;99.90
15690;DHT22;7945;48.816;11.506;2023-02-12T02:11:26;4.90;99.90
15690;DHT22;7945;48.816;11.506;2023-02-12T02:14:10;4.90;99.90
15690;DHT22;7945;48.816;11.506;2023-02-12T02:20:34;5.00;99.90
15690;DHT22;7945;48.816;11.506;2023-02-12T02:23:18;4.90;99.90
15690;DHT22;7945;48.816;11.506;2023-02-12T02:26:16;4.90;99.90
15690;DHT22;7945;48.816;11.506;2023-02-12T02:28:57;4.90;99.90
15690;DHT22;7945;48.816;11.506;2023-02-12T02:31:29;4.90;99.90
15690;DHT22;7945;48.816;11.506;2023-02-12T02:34:02;4.90;99.90
15690;DHT22;7945;48.816;11.506;2023-02-12T02:36:34;4.90;99.90
15690;DHT22;7945;48.816;11.506;2023-02-12T02:39:05;4.90;99.90
15690;DHT22;7945;48.816;11.506;2023-02-12T02:41:37;5.00;99.90
15690;DHT22;7945;48.816;11.506;2023-02-12T02:44:09;4.90;99.90
15690;DHT22;7945;48.816;11.506;2023-02-12T02:46:42;5.00;99.90
15690;DHT22;7945;48.816;11.506;2023-02-12T02:49:15;5.00;99.90
15690;DHT22;7945;48.816;11.506;2023-02-12T02:51:46;5.00;99.90
15690;DHT22;7945;48.816;11.506;2023-02-12T02:54:17;5.00;99.90
15690;DHT22;7945;48.816;11.506;2023-02-12T02:56:47;5.00;99.90
15690;DHT22;7945;48.816;11.506;2023-02-12T02:59:21;5.00;99.90
15690;DHT22;7945;48.816;11.506;2023-02-12T03:01:54;5.00;99.90
15690;DHT22;7945;48.816;11.506;2023-02-12T03:04:26;4.90;99.90
15690;DHT22;7945;48.816;11.506;2023-02-12T03:06:59;4.90;99.90
15690;DHT22;7945;48.816;11.506;2023-02-12T03:09:31;4.90;99.90
15690;DHT22;7945;48.816;11.506;2023-02-12T03:12:03;4.90;99.90
15690;DHT22;7945;48.816;11.506;2023-02-12T03:14:35;4.90;99.90
15690;DHT22;7945;48.816;11.506;2023-02-12T03:17:08;4.90;99.90
15690;DHT22;7945;48.816;11.506;2023-02-12T03:19:39;4.90;99.90
15690;DHT22;7945;48.816;11.506;2023-02-12T03:22:09;4.90;99.90
15690;DHT22;7945;48.816;11.506;2023-02-12T03:24:41;4.90;99.90
15690;DHT22;7945;48.816;11.506;2023-02-12T03:27:14;4.90;99.90
15690;DHT22;7945;48.816;11.506;2023-02-12T03:29:42;4.90;99.90
15690;DHT22;7945;48.816;11.506;2023-02-12T03:32:19;4.90;99.90
15690;DHT22;7945;48.816;11.506;2023-02-12T03:34:50;4.90;99.90
15690;DHT22;7945;48.816;11.506;2023-02-12T03:37:23;5.00;99.90
15690;DHT22;7945;48.816;11.506;2023-02-12T03:39:55;5.00;99.90
15690;DHT22;7945;48.816;11.506;2023-02-12T03:42:30;5.00;99.90
15690;DHT22;7945;48.816;11.506;2023-02-12T03:45:02;5.00;99.90
15690;DHT22;7945;48.816;11.506;2023-02-12T03:47:38;5.00;99.90
15690;DHT22;7945;48.816;11.506;2023-02-12T03:50:12;5.00;99.90
15690;DHT22;7945;48.816;11.506;2023-02-12T03:52:40;5.00;99.90
15690;DHT22;7945;48.816;11.506;2023-02-12T03:55:08;5.00;99.90
15690;DHT22;7945;48.816;11.506;2023-02-12T03:57:39;5.00;99.90
15690;DHT22;7945;48.816;11.506;2023-02-12T04:00:09;5.00;99.90
15690;DHT22;7945;48.816;11.506;2023-02-12T04:02:37;4.90;99.90
15690;DHT22;7945;48.816;11.506;2023-02-12T04:05:04;4.90;99.90
15690;DHT22;7945;48.816;11.506;2023-02-12T04:07:32;4.90;99.90
15690;DHT22;7945;48.816;11.506;2023-02-12T04:09:59;4.90;99.90
15690;DHT22;7945;48.816;11.506;2023-02-12T04:12:38;4.80;99.90
15690;DHT22;7945;48.816;11.506;2023-02-12T04:15:15;4.90;99.90
15690;DHT22;7945;48.816;11.506;2023-02-12T04:17:51;4.80;99.90
15690;DHT22;7945;48.816;11.506;2023-02-12T04:20:26;4.80;99.90
15690;DHT22;7945;48.816;11.506;2023-02-12T04:23:13;4.80;99.90
15690;DHT22;7945;48.816;11.506;2023-02-12T04:25:50;4.80;99.90
15690;DHT22;7945;48.816;11.506;2023-02-12T04:28:26;4.80;99.90
15690;DHT22;7945;48.816;11.506;2023-02-12T04:30:58;4.80;99.90
15690;DHT22;7945;48.816;11.506;2023-02-12T04:33:33;4.80;99.90
15690;DHT22;7945;48.816;11.506;2023-02-12T04:36:05;4.80;99.90
15690;DHT22;7945;48.816;11.506;2023-02-12T04:38:37;4.80;99.90
15690;DHT22;7945;48.816;11.506;2023-02-12T04:41:06;4.80;99.90
15690;DHT22;7945;48.816;11.506;2023-02-12T04:43:35;4.80;99.90
15690;DHT22;7945;48.816;11.506;2023-02-12T04:46:04;4.80;99.90
15690;DHT22;7945;48.816;11.506;2023-02-12T04:48:33;4.80;99.90
15690;DHT22;7945;48.816;11.506;2023-02-12T04:51:00;4.80;99.90
15690;DHT22;7945;48.816;11.506;2023-02-12T04:53:27;4.80;99.90
15690;DHT22;7945;48.816;11.506;2023-02-12T04:55:54;4.80;99.90
15690;DHT22;7945;48.816;11.506;2023-02-12T04:58:21;4.80;99.90
15690;DHT22;7945;48.816;11.506;2023-02-12T05:00:47;4.80;99.90
15690;DHT22;7945;48.816;11.506;2023-02-12T05:03:14;4.80;99.90
15690;DHT22;7945;48.816;11.506;2023-02-12T05:05:42;4.80;99.90
15690;DHT22;7945;48.816;11.506;2023-02-12T05:08:09;4.80;99.90
15690;DHT22;7945;48.816;11.506;2023-02-12T05:10:35;4.80;99.90
15690;DHT22;7945;48.816;11.506;2023-02-12T05:13:02;4.80;99.90
15690;DHT22;7945;48.816;11.506;2023-02-12T05:15:29;4.80;99.90
15690;DHT22;7945;48.816;11.506;2023-02-12T05:17:55;4.80;99.90
15690;DHT22;7945;48.816;11.506;2023-02-12T05:20:22;4.80;99.90
15690;DHT22;7945;48.816;11.506;2023-02-12T05:22:52;4.80;99.90
15690;DHT22;7945;48.816;11.506;2023-02-12T05:25:19;4.80;99.90
15690;DHT22;7945;48.816;11.506;2023-02-12T05:27:46;4.80;99.90
15690;DHT22;7945;48.816;11.506;2023-02-12T05:30:13;4.80;99.90
15690;DHT22;7945;48.816;11.506;2023-02-12T05:32:40;4.70;99.90
15690;DHT22;7945;48.816;11.506;2023-02-12T05:35:07;4.80;99.90
15690;DHT22;7945;48.816;11.506;2023-02-12T05:37:34;4.70;99.90
15690;DHT22;7945;48.816;11.506;2023-02-12T05:40:02;4.70;99.90
15690;DHT22;7945;48.816;11.506;2023-02-12T05:42:29;4.70;99.90
15690;DHT22;7945;48.816;11.506;2023-02-12T05:44:56;4.70;99.90
15690;DHT22;7945;48.816;11.506;2023-02-12T05:47:23;4.70;99.90
15690;DHT22;7945;48.816;11.506;2023-02-12T05:49:50;4.70;99.90
15690;DHT22;7945;48.816;11.506;2023-02-12T05:52:17;4.70;99.90
15690;DHT22;7945;48.816;11.506;2023-02-12T05:54:43;4.70;99.90
15690;DHT22;7945;48.816;11.506;2023-02-12T05:57:11;4.70;99.90
15690;DHT22;7945;48.816;11.506;2023-02-12T05:59:38;4.70;99.90
15690;DHT22;7945;48.816;11.506;2023-02-12T06:02:05;4.70;99.90
15690;DHT22;7945;48.816;11.506;2023-02-12T06:04:31;4.70;99.90
15690;DHT22;7945;48.816;11.506;2023-02-12T06:06:59;4.70;99.90
15690;DHT22;7945;48.816;11.506;2023-02-12T06:09:26;4.70;99.90
15690;DHT22;7945;48.816;11.506;2023-02-12T06:15:12;4.70;99.90
15690;DHT22;7945;48.816;11.506;2023-02-12T06:17:39;4.70;99.90
15690;DHT22;7945;48.816;11.506;2023-02-12T06:20:06;4.70;99.90
15690;DHT22;7945;48.816;11.506;2023-02-12T06:22:32;4.70;99.90
15690;DHT22;7945;48.816;11.506;2023-02-12T06:24:59;4.70;99.90
15690;DHT22;7945;48.816;11.506;2023-02-12T06:27:26;4.70;99.90
15690;DHT22;7945;48.816;11.506;2023-02-12T06:29:52;4.70;99.90
15690;DHT22;7945;48.816;11.506;2023-02-12T06:32:20;4.70;99.90
15690;DHT22;7945;48.816;11.506;2023-02-12T06:34:48;4.70;99.90
15690;DHT22;7945;48.816;11.506;2023-02-12T06:37:14;4.70;99.90
15690;DHT22;7945;48.816;11.506;2023-02-12T06:39:41;4.70;99.90
15690;DHT22;7945;48.816;11.506;2023-02-12T06:42:08;4.70;99.90
15690;DHT22;7945;48.816;11.506;2023-02-12T06:44:34;4.70;99.90
15690;DHT22;7945;48.816;11.506;2023-02-12T06:47:01;4.70;99.90
15690;DHT22;7945;48.816;11.506;2023-02-12T06:49:29;4.70;99.90
15690;DHT22;7945;48.816;11.506;2023-02-12T06:51:56;4.70;99.90
15690;DHT22;7945;48.816;11.506;2023-02-12T06:54:22;4.70;99.90
15690;DHT22;7945;48.816;11.506;2023-02-12T06:56:49;4.70;99.90
15690;DHT22;7945;48.816;11.506;2023-02-12T06:59:16;4.80;99.90
15690;DHT22;7945;48.816;11.506;2023-02-12T07:01:43;4.70;99.90
15690;DHT22;7945;48.816;11.506;2023-02-12T07:04:10;4.70;99.90
15690;DHT22;7945;48.816;11.506;2023-02-12T07:06:38;4.70;99.90
15690;DHT22;7945;48.816;11.506;2023-02-12T07:09:05;4.80;99.90
15690;DHT22;7945;48.816;11.506;2023-02-12T07:11:34;4.80;99.90
15690;DHT22;7945;48.816;11.506;2023-02-12T07:14:01;4.80;99.90
15690;DHT22;7945;48.816;11.506;2023-02-12T07:16:28;4.80;99.90
15690;DHT22;7945;48.816;11.506;2023-02-12T07:18:54;4.80;99.90
15690;DHT22;7945;48.816;11.506;2023-02-12T07:21:21;4.80;99.90
15690;DHT22;7945;48.816;11.506;2023-02-12T07:23:51;4.90;99.90
15690;DHT22;7945;48.816;11.506;2023-02-12T07:26:19;4.90;99.90
15690;DHT22;7945;48.816;11.506;2023-02-12T07:28:46;4.90;99.90
15690;DHT22;7945;48.816;11.506;2023-02-12T07:31:14;4.90;99.90
15690;DHT22;7945;48.816;11.506;2023-02-12T07:33:41;5.00;99.90
15690;DHT22;7945;48.816;11.506;2023-02-12T07:36:10;5.00;99.90
15690;DHT22;7945;48.816;11.506;2023-02-12T07:38:37;5.00;99.90
15690;DHT22;7945;48.816;11.506;2023-02-12T07:41:08;5.00;99.90
15690;DHT22;7945;48.816;11.506;2023-02-12T07:43:34;5.00;99.90
15690;DHT22;7945;48.816;11.506;2023-02-12T07:46:06;5.10;99.90
15690;DHT22;7945;48.816;11.506;2023-02-12T07:48:33;5.10;99.90
15690;DHT22;7945;48.816;11.506;2023-02-12T07:51:02;5.10;99.90
15690;DHT22;7945;48.816;11.506;2023-02-12T07:53:29;5.10;99.90
15690;DHT22;7945;48.816;11.506;2023-02-12T07:56:05;5.10;99.90
15690;DHT22;7945;48.816;11.506;2023-02-12T07:58:32;5.10;99.90
15690;DHT22;7945;48.816;11.506;2023-02-12T08:00:59;5.10;99.90
15690;DHT22;7945;48.816;11.506;2023-02-12T08:03:27;5.20;99.90
15690;DHT22;7945;48.816;11.506;2023-02-12T08:05:53;5.20;99.90
15690;DHT22;7945;48.816;11.506;2023-02-12T08:08:20;5.10;99.90
15690;DHT22;7945;48.816;11.506;2023-02-12T08:10:47;5.20;99.90
15690;DHT22;7945;48.816;11.506;2023-02-12T08:13:15;5.20;99.90
15690;DHT22;7945;48.816;11.506;2023-02-12T08:15:41;5.30;99.90
15690;DHT22;7945;48.816;11.506;2023-02-12T08:18:08;5.30;99.90
15690;DHT22;7945;48.816;11.506;2023-02-12T08:20:35;5.30;99.90
15690;DHT22;7945;48.816;11.506;2023-02-12T08:23:02;5.40;99.90
15690;DHT22;7945;48.816;11.506;2023-02-12T08:25:28;5.40;99.90
15690;DHT22;7945;48.816;11.506;2023-02-12T08:27:55;5.40;99.90
15690;DHT22;7945;48.816;11.506;2023-02-12T08:30:23;5.40;99.90
15690;DHT22;7945;48.816;11.506;2023-02-12T08:32:50;5.50;99.90
15690;DHT22;7945;48.816;11.506;2023-02-12T08:35:17;5.50;99.90
15690;DHT22;7945;48.816;11.506;2023-02-12T08:37:43;5.50;99.90
15690;DHT22;7945;48.816;11.506;2023-02-12T08:40:11;5.50;99.90
15690;DHT22;7945;48.816;11.506;2023-02-12T08:42:38;5.50;99.90
15690;DHT22;7945;48.816;11.506;2023-02-12T08:45:06;5.50;99.90
15690;DHT22;7945;48.816;11.506;2023-02-12T08:47:34;5.50;99.90
15690;DHT22;7945;48.816;11.506;2023-02-12T08:50:00;5.50;99.90
15690;DHT22;7945;48.816;11.506;2023-02-12T08:52:28;5.50;99.90
15690;DHT22;7945;48.816;11.506;2023-02-12T08:54:54;5.50;99.90
15690;DHT22;7945;48.816;11.506;2023-02-12T08:57:21;5.60;99.90
15690;DHT22;7945;48.816;11.506;2023-02-12T08:59:48;5.60;99.90
15690;DHT22;7945;48.816;11.506;2023-02-12T09:02:15;5.60;99.90
15690;DHT22;7945;48.816;11.506;2023-02-12T09:04:43;5.60;99.90
15690;DHT22;7945;48.816;11.506;2023-02-12T09:07:09;5.60;99.90
15690;DHT22;7945;48.816;11.506;2023-02-12T09:09:36;5.70;99.90
15690;DHT22;7945;48.816;11.506;2023-02-12T09:12:03;5.70;99.90
15690;DHT22;7945;48.816;11.506;2023-02-12T09:14:30;5.70;99.90
15690;DHT22;7945;48.816;11.506;2023-02-12T09:16:57;5.70;99.90
15690;DHT22;7945;48.816;11.506;2023-02-12T09:19:24;5.70;99.90
15690;DHT22;7945;48.816;11.506;2023-02-12T09:21:53;5.60;99.90
15690;DHT22;7945;48.816;11.506;2023-02-12T09:24:20;5.60;99.90
15690;DHT22;7945;48.816;11.506;2023-02-12T09:26:47;5.60;99.90
15690;DHT22;7945;48.816;11.506;2023-02-12T09:29:13;5.60;99.90
15690;DHT22;7945;48.816;11.506;2023-02-12T09:31:40;5.60;99.90
15690;DHT22;7945;48.816;11.506;2023-02-12T09:34:07;5.60;99.90
15690;DHT22;7945;48.816;11.506;2023-02-12T09:36:34;5.60;99.90
15690;DHT22;7945;48.816;11.506;2023-02-12T09:39:03;5.70;99.90
15690;DHT22;7945;48.816;11.506;2023-02-12T09:41:51;5.70;99.90
15690;DHT22;7945;48.816;11.506;2023-02-12T09:44:26;5.70;99.90
15690;DHT22;7945;48.816;11.506;2023-02-12T09:46:59;5.70;99.90
15690;DHT22;7945;48.816;11.506;2023-02-12T09:49:41;5.70;99.90
15690;DHT22;7945;48.816;11.506;2023-02-12T09:52:13;5.80;99.90
15690;DHT22;7945;48.816;11.506;2023-02-12T09:54:43;5.80;99.90
15690;DHT22;7945;48.816;11.506;2023-02-12T09:57:15;5.90;99.90
15690;DHT22;7945;48.816;11.506;2023-02-12T09:59:47;5.90;99.90
15690;DHT22;7945;48.816;11.506;2023-02-12T10:02:16;5.90;99.90
15690;DHT22;7945;48.816;11.506;2023-02-12T10:04:45;6.00;99.90
15690;DHT22;7945;48.816;11.506;2023-02-12T10:07:20;6.00;99.90
15690;DHT22;7945;48.816;11.506;2023-02-12T10:10:05;6.00;99.90
15690;DHT22;7945;48.816;11.506;2023-02-12T10:12:36;6.00;99.90
15690;DHT22;7945;48.816;11.506;2023-02-12T10:15:12;6.10;99.90
15690;DHT22;7945;48.816;11.506;2023-02-12T10:17:42;6.10;99.90
15690;DHT22;7945;48.816;11.506;2023-02-12T10:20:36;6.20;99.90
15690;DHT22;7945;48.816;11.506;2023-02-12T10:23:15;6.30;99.90
15690;DHT22;7945;48.816;11.506;2023-02-12T10:25:49;6.30;99.90
15690;DHT22;7945;48.816;11.506;2023-02-12T10:28:20;6.40;99.90
15690;DHT22;7945;48.816;11.506;2023-02-12T10:30:53;6.50;99.90
15690;DHT22;7945;48.816;11.506;2023-02-12T10:33:26;6.60;99.90
15690;DHT22;7945;48.816;11.506;2023-02-12T10:35:58;6.60;99.90
15690;DHT22;7945;48.816;11.506;2023-02-12T10:38:30;6.60;99.90
15690;DHT22;7945;48.816;11.506;2023-02-12T10:40:59;6.70;99.90
15690;DHT22;7945;48.816;11.506;2023-02-12T10:43:27;6.70;99.90
15690;DHT22;7945;48.816;11.506;2023-02-12T10:45:54;6.60;99.90
15690;DHT22;7945;48.816;11.506;2023-02-12T10:48:23;6.60;99.90
15690;DHT22;7945;48.816;11.506;2023-02-12T10:50:59;6.50;99.90
15690;DHT22;7945;48.816;11.506;2023-02-12T10:53:31;6.60;99.90
15690;DHT22;7945;48.816;11.506;2023-02-12T10:56:14;6.60;99.90
15690;DHT22;7945;48.816;11.506;2023-02-12T10:58:51;6.60;99.90
15690;DHT22;7945;48.816;11.506;2023-02-12T11:01:21;6.60;99.90
15690;DHT22;7945;48.816;11.506;2023-02-12T11:03:50;6.60;99.90
15690;DHT22;7945;48.816;11.506;2023-02-12T11:06:19;6.60;99.90
15690;DHT22;7945;48.816;11.506;2023-02-12T11:08:46;6.60;99.90
15690;DHT22;7945;48.816;11.506;2023-02-12T11:11:20;6.60;99.90
15690;DHT22;7945;48.816;11.506;2023-02-12T11:13:53;6.60;99.90
15690;DHT22;7945;48.816;11.506;2023-02-12T11:16:30;6.60;99.90
15690;DHT22;7945;48.816;11.506;2023-02-12T11:18:58;6.60;99.90
15690;DHT22;7945;48.816;11.506;2023-02-12T11:21:26;6.60;99.90
15690;DHT22;7945;48.816;11.506;2023-02-12T11:23:52;6.50;99.90
15690;DHT22;7945;48.816;11.506;2023-02-12T11:26:26;6.60;99.90
15690;DHT22;7945;48.816;11.506;2023-02-12T11:28:55;6.70;99.90
15690;DHT22;7945;48.816;11.506;2023-02-12T11:31:24;6.70;99.90
15690;DHT22;7945;48.816;11.506;2023-02-12T11:34:07;6.80;99.90
15690;DHT22;7945;48.816;11.506;2023-02-12T11:36:36;6.80;99.90
15690;DHT22;7945;48.816;11.506;2023-02-12T11:39:03;6.90;99.90
15690;DHT22;7945;48.816;11.506;2023-02-12T11:41:36;7.00;99.90
15690;DHT22;7945;48.816;11.506;2023-02-12T11:44:08;7.10;99.90
15690;DHT22;7945;48.816;11.506;2023-02-12T11:46:36;7.20;99.90
15690;DHT22;7945;48.816;11.506;2023-02-12T11:49:04;7.30;99.90
15690;DHT22;7945;48.816;11.506;2023-02-12T11:51:35;7.30;99.90
15690;DHT22;7945;48.816;11.506;2023-02-12T11:54:03;7.30;99.90
15690;DHT22;7945;48.816;11.506;2023-02-12T11:56:43;7.30;99.90
15690;DHT22;7945;48.816;11.506;2023-02-12T11:59:20;7.20;99.90
15690;DHT22;7945;48.816;11.506;2023-02-12T12:01:51;7.30;99.90
15690;DHT22;7945;48.816;11.506;2023-02-12T12:04:21;7.30;99.90
15690;DHT22;7945;48.816;11.506;2023-02-12T12:06:51;7.20;99.90
15690;DHT22;7945;48.816;11.506;2023-02-12T12:09:23;7.20;99.90
15690;DHT22;7945;48.816;11.506;2023-02-12T12:11:57;7.20;99.90
15690;DHT22;7945;48.816;11.506;2023-02-12T12:14:30;7.30;99.90
15690;DHT22;7945;48.816;11.506;2023-02-12T12:17:01;7.20;99.90
15690;DHT22;7945;48.816;11.506;2023-02-12T12:19:51;7.10;99.90
15690;DHT22;7945;48.816;11.506;2023-02-12T12:22:41;7.20;99.90
15690;DHT22;7945;48.816;11.506;2023-02-12T12:25:17;7.20;99.90
15690;DHT22;7945;48.816;11.506;2023-02-12T12:27:55;7.20;99.90
15690;DHT22;7945;48.816;11.506;2023-02-12T12:30:57;7.20;99.90
15690;DHT22;7945;48.816;11.506;2023-02-12T12:33:31;7.20;99.90
15690;DHT22;7945;48.816;11.506;2023-02-12T12:36:32;7.20;99.90
15690;DHT22;7945;48.816;11.506;2023-02-12T12:39:05;7.30;99.90
15690;DHT22;7945;48.816;11.506;2023-02-12T12:41:40;7.40;99.90
15690;DHT22;7945;48.816;11.506;2023-02-12T12:44:27;7.60;99.90
15690;DHT22;7945;48.816;11.506;2023-02-12T12:47:08;7.80;99.90
15690;DHT22;7945;48.816;11.506;2023-02-12T12:49:50;8.00;99.90
15690;DHT22;7945;48.816;11.506;2023-02-12T12:52:51;8.00;99.90
15690;DHT22;7945;48.816;11.506;2023-02-12T12:55:51;8.00;99.90
15690;DHT22;7945;48.816;11.506;2023-02-12T12:58:29;8.00;99.90
15690;DHT22;7945;48.816;11.506;2023-02-12T13:01:12;8.10;99.90
15690;DHT22;7945;48.816;11.506;2023-02-12T13:06:44;8.40;99.90
15690;DHT22;7945;48.816;11.506;2023-02-12T13:09:27;8.40;99.90
15690;DHT22;7945;48.816;11.506;2023-02-12T13:12:13;8.30;99.90
15690;DHT22;7945;48.816;11.506;2023-02-12T13:14:53;8.30;99.90
15690;DHT22;7945;48.816;11.506;2023-02-12T13:17:26;8.20;99.90
15690;DHT22;7945;48.816;11.506;2023-02-12T13:20:03;8.10;99.90
15690;DHT22;7945;48.816;11.506;2023-02-12T13:22:36;8.00;99.90
15690;DHT22;7945;48.816;11.506;2023-02-12T13:25:17;8.00;99.90
15690;DHT22;7945;48.816;11.506;2023-02-12T13:27:48;8.00;99.90
15690;DHT22;7945;48.816;11.506;2023-02-12T13:30:21;8.00;99.90
15690;DHT22;7945;48.816;11.506;2023-02-12T13:32:58;8.00;99.90
15690;DHT22;7945;48.816;11.506;2023-02-12T13:35:28;8.00;99.90
15690;DHT22;7945;48.816;11.506;2023-02-12T13:37:55;8.00;99.90
15690;DHT22;7945;48.816;11.506;2023-02-12T13:40:24;8.00;99.90
15690;DHT22;7945;48.816;11.506;2023-02-12T13:42:57;8.00;99.90
15690;DHT22;7945;48.816;11.506;2023-02-12T13:45:33;8.00;99.90
15690;DHT22;7945;48.816;11.506;2023-02-12T13:48:18;8.00;99.90
15690;DHT22;7945;48.816;11.506;2023-02-12T13:50:53;8.00;99.90
15690;DHT22;7945;48.816;11.506;2023-02-12T13:53:26;7.90;99.90
15690;DHT22;7945;48.816;11.506;2023-02-12T13:56:05;7.90;99.90
15690;DHT22;7945;48.816;11.506;2023-02-12T13:58:46;7.90;99.90
15690;DHT22;7945;48.816;11.506;2023-02-12T14:01:41;7.80;99.90
15690;DHT22;7945;48.816;11.506;2023-02-12T14:04:30;7.70;99.90
15690;DHT22;7945;48.816;11.506;2023-02-12T14:07:00;7.70;99.90
15690;DHT22;7945;48.816;11.506;2023-02-12T14:09:34;7.70;99.90
15690;DHT22;7945;48.816;11.506;2023-02-12T14:12:04;7.70;99.90
15690;DHT22;7945;48.816;11.506;2023-02-12T14:14:34;7.60;99.90
15690;DHT22;7945;48.816;11.506;2023-02-12T14:17:39;7.70;99.90
15690;DHT22;7945;48.816;11.506;2023-02-12T14:20:22;7.70;99.90
15690;DHT22;7945;48.816;11.506;2023-02-12T14:23:02;7.70;99.90
15690;DHT22;7945;48.816;11.506;2023-02-12T14:25:37;7.60;99.90
15690;DHT22;7945;48.816;11.506;2023-02-12T14:28:08;7.60;99.90
15690;DHT22;7945;48.816;11.506;2023-02-12T14:30:38;7.60;99.90
15690;DHT22;7945;48.816;11.506;2023-02-12T14:33:22;7.60;99.90
15690;DHT22;7945;48.816;11.506;2023-02-12T14:36:19;7.60;99.90
15690;DHT22;7945;48.816;11.506;2023-02-12T14:39:25;7.60;99.90
15690;DHT22;7945;48.816;11.506;2023-02-12T14:41:52;7.60;99.90
15690;DHT22;7945;48.816;11.506;2023-02-12T14:44:45;7.60;99.90
15690;DHT22;7945;48.816;11.506;2023-02-12T14:47:15;7.60;99.90
15690;DHT22;7945;48.816;11.506;2023-02-12T14:50:05;7.60;99.90
15690;DHT22;7945;48.816;11.506;2023-02-12T14:52:38;7.60;99.90
15690;DHT22;7945;48.816;11.506;2023-02-12T14:55:17;7.60;99.90
15690;DHT22;7945;48.816;11.506;2023-02-12T14:57:45;7.60;99.90
15690;DHT22;7945;48.816;11.506;2023-02-12T15:00:22;7.60;99.90
15690;DHT22;7945;48.816;11.506;2023-02-12T15:02:53;7.60;99.90
15690;DHT22;7945;48.816;11.506;2023-02-12T15:05:25;7.60;99.90
15690;DHT22;7945;48.816;11.506;2023-02-12T15:07:56;7.50;99.90
15690;DHT22;7945;48.816;11.506;2023-02-12T15:10:29;7.50;99.90
15690;DHT22;7945;48.816;11.506;2023-02-12T15:13:06;7.50;99.90
15690;DHT22;7945;48.816;11.506;2023-02-12T15:15:38;7.40;99.90
15690;DHT22;7945;48.816;11.506;2023-02-12T15:18:13;7.50;99.90
15690;DHT22;7945;48.816;11.506;2023-02-12T15:20:47;7.50;99.90
15690;DHT22;7945;48.816;11.506;2023-02-12T15:23:35;7.50;99.90
15690;DHT22;7945;48.816;11.506;2023-02-12T15:26:03;7.50;99.90
15690;DHT22;7945;48.816;11.506;2023-02-12T15:28:32;7.50;99.90
15690;DHT22;7945;48.816;11.506;2023-02-12T15:31:02;7.50;99.90
15690;DHT22;7945;48.816;11.506;2023-02-12T15:33:32;7.50;99.90
15690;DHT22;7945;48.816;11.506;2023-02-12T15:36:00;7.50;99.90
15690;DHT22;7945;48.816;11.506;2023-02-12T15:38:30;7.50;99.90
15690;DHT22;7945;48.816;11.506;2023-02-12T15:41:01;7.40;99.90
15690;DHT22;7945;48.816;11.506;2023-02-12T15:43:30;7.40;99.90
15690;DHT22;7945;48.816;11.506;2023-02-12T15:46:00;7.40;99.90
15690;DHT22;7945;48.816;11.506;2023-02-12T15:48:31;7.40;99.90
15690;DHT22;7945;48.816;11.506;2023-02-12T15:51:07;7.30;99.90
15690;DHT22;7945;48.816;11.506;2023-02-12T15:53:35;7.30;99.90
15690;DHT22;7945;48.816;11.506;2023-02-12T15:56:10;7.30;99.90
15690;DHT22;7945;48.816;11.506;2023-02-12T15:58:41;7.30;99.90
15690;DHT22;7945;48.816;11.506;2023-02-12T16:01:14;7.20;99.90
15690;DHT22;7945;48.816;11.506;2023-02-12T16:03:41;7.20;99.90
15690;DHT22;7945;48.816;11.506;2023-02-12T16:06:10;7.20;99.90
15690;DHT22;7945;48.816;11.506;2023-02-12T16:08:39;7.10;99.90
15690;DHT22;7945;48.816;11.506;2023-02-12T16:11:09;7.20;99.90
15690;DHT22;7945;48.816;11.506;2023-02-12T16:13:41;7.10;99.90
15690;DHT22;7945;48.816;11.506;2023-02-12T16:16:18;7.10;99.90
15690;DHT22;7945;48.816;11.506;2023-02-12T16:18:45;7.00;99.90
15690;DHT22;7945;48.816;11.506;2023-02-12T16:21:16;7.00;99.90